x

West Moresby (46208) Wave Buoy

11:00am - Wed 4th Mar 2015 All times are PST. -8 hours from GMT.

  • Sig Wave height 3.0ft
  • Peak Period 15s
  • Wind
    11mph, 13mph gusts
  • Sea Temp 49°f
  • Air Temp 46°f
  • Sea Pressure 1021.9mb
  • West Moresby
  • West Moresby

More Historic Weather Station data

Upgrade to MSW Pro to gain access to the past 30 days of data for over 8000 Wavebouys and Weather Stations around the globe.

Join Pro

Comparision Forecast

View Surf forecast
   
Wed 03/04 11:00am 3ft 15s 11 13 mph 1021.9mb 49f 46f
10:00am 3.5ft 15s 11 13 mph 1022.4mb 49f 46f
9:00am 3ft 15s 9 13 mph 1022.3mb 49f 45f
8:00am 3.5ft 15s 9 11 mph 1022.5mb 49f 45f
7:00am 3ft 15s 4 7 mph 1022.8mb 49f 44f
6:00am 3.5ft 16s 7 9 mph 1023mb 49f 44f
5:00am 3.5ft 9s 7
mph
1023.3mb 49f 44f
4:00am 3ft 10s 4 9 mph 1023.3mb 49f 44f
3:00am 3.5ft 8s 7 9 mph 1023.7mb 49f 43f
2:00am 3ft 10s 4 7 mph 1024.1mb 49f 44f
1:00am 3ft 10s 11 13 mph 1024.5mb 49f 44f
12:00am 3ft 8s 9 11 mph 1024.3mb 49f 45f
Tue 03/03 11:00pm 2.5ft 11s 9 11 mph 1024.4mb 49f 45f
10:00pm 2.5ft 11s 7 9 mph 1024.3mb 49f 45f
9:00pm 2.5ft 12s 9 11 mph 1024.4mb 49f 46f
8:00pm 2.5ft 11s 11 13 mph 1024.6mb 50f 46f
7:00pm 2.5ft 12s 9 13 mph 1024.6mb 50f 47f
6:00pm 2.5ft 12s 2 4 mph 1024.9mb 50f 47f
5:00pm 2.5ft 12s 4 7 mph 1025.2mb 50f 48f
4:00pm 2.5ft 12s 4
mph
1025.5mb 50f 48f
3:00pm 2.5ft 12s 4 7 mph 1025.6mb 50f 48f
2:00pm 2.5ft 12s 4 7 mph 1025.6mb 50f 47f
1:00pm 2.5ft 10s 4
mph
1025.8mb 50f 48f
12:00pm 2.5ft 11s 7
mph
1025.8mb 50f 48f
11:00am 2.5ft 12s 7 9 mph 1025.7mb 49f 48f
10:00am 2.5ft 12s 9
mph
1025.7mb 49f 48f
9:00am 2.5ft 12s 9
mph
1025.6mb 49f 48f
8:00am 2.5ft 11s 9
mph
1025.5mb 49f 48f
7:00am 3ft 12s 7 9 mph 1025.3mb 49f 47f
6:00am 2.5ft 13s 9 11 mph 1025.5mb 49f 48f
5:00am 2.5ft 11s 9 11 mph 1025.5mb 49f 48f
4:00am 2.5ft 12s 11 13 mph 1025.5mb 49f 48f
3:00am 2.5ft 12s 11 13 mph 1025.7mb 49f 48f
2:00am 2.5ft 13s 9 13 mph 1025.6mb 49f 48f
1:00am 3ft 12s 7 9 mph 1025.2mb 49f 48f
12:00am 2.5ft 11s 4
mph
1024.9mb 49f 48f
Mon 03/02 11:00pm 3ft 14s 7 9 mph 1025mb 49f 48f
10:00pm 3ft 12s 7 9 mph 1024.9mb 49f 48f
9:00pm 3ft 11s 9
mph
1025mb 49f 48f
8:00pm 3ft 12s 9 11 mph 1025mb 49f 48f
7:00pm 3ft 12s 9
mph
1025.2mb 49f 48f
6:00pm 3.5ft 12s 9 11 mph 1024.6mb 49f 48f
5:00pm 3.5ft 11s 11 13 mph 1024.9mb 49f 48f
4:00pm 3.5ft 12s 13 16 mph 1025.2mb 49f 48f
3:00pm 3.5ft 11s 13 16 mph 1025.2mb 49f 49f
2:00pm 3.5ft 12s 9 11 mph 1025.2mb 49f 49f
1:00pm 4ft 11s 9 11 mph 1025.5mb 49f 49f
12:00pm 4.5ft 12s 11
mph
1025.5mb 49f 49f
11:00am 4.5ft 12s 9
mph
1025.6mb 49f 49f
10:00am 4ft 12s 7 9 mph 1025.3mb 49f 49f
9:00am 4.5ft 7s 9 11 mph 1025.2mb 49f 48f
8:00am 4.5ft 7s 11 13 mph 1025mb 49f 48f
7:00am 5ft 7s 13 16 mph 1024.8mb 49f 48f
6:00am 5ft 7s 18 20 mph 1025mb 49f 48f
5:00am 5.5ft 7s 18 20 mph 1025.2mb 49f 48f
4:00am 6ft 7s 20 22 mph 1025.3mb 49f 48f
3:00am 6ft 7s 18 20 mph 1025.6mb 49f 48f
2:00am 6.5ft 8s 22 25 mph 1025.4mb 49f 47f
1:00am 6.5ft 7s 22 27 mph 1025.4mb 49f 47f
12:00am 6.5ft 7s 22 25 mph 1025.8mb 49f 47f
Sun 03/01 11:00pm 7ft 7s 22 27 mph 1025.5mb 49f 47f
10:00pm 7ft 8s 25 29 mph 1025.4mb 49f 47f
9:00pm 7.5ft 7s 27 31 mph 1025.1mb 49f 47f
8:00pm 7ft 7s 25 31 mph 1024.8mb 49f 48f
7:00pm 7ft 7s 27 31 mph 1024.6mb 49f 47f
6:00pm 8ft 7s 27 31 mph 1024.4mb 49f 47f
5:00pm 8.5ft 8s 27 34 mph 1024.2mb 49f 47f
4:00pm 8ft 7s 27 34 mph 1024.2mb 49f 47f
3:00pm 8ft 7s 27 31 mph 1024mb 49f 47f
2:00pm 7.5ft 7s 25 31 mph 1024mb 49f 47f
1:00pm 7ft 7s 25 29 mph 1024.3mb 49f 48f
12:00pm 7ft 6s 25 29 mph 1024.2mb 49f 47f
11:00am 6ft 6s 25 31 mph 1024.6mb 49f 47f
10:00am 5.5ft 5s 25 29 mph 1024.9mb 49f 47f
9:00am 5ft 5s 22 27 mph 1025.4mb 49f 47f
8:00am 5ft 6s 22 27 mph 1025.7mb 49f 47f
7:00am 5ft 6s 20 25 mph 1026mb 49f 47f
6:00am 4.5ft 6s 22 25 mph 1026.5mb 49f 47f
5:00am 5ft 6s 22 27 mph 1027.2mb 49f 47f
4:00am 5ft 6s 22 25 mph 1027.2mb 49f 46f
3:00am 5ft 6s 18 25 mph 1027.2mb 49f 46f
2:00am 5.5ft 6s 22 25 mph 1027.7mb 49f 46f
1:00am 6ft 6s 22 25 mph 1027.9mb 49f 46f
12:00am 5.5ft 6s 20 25 mph 1027.8mb 49f 46f
Sat 02/28 11:00pm 6ft 6s 22 29 mph 1027.9mb 49f 46f
10:00pm 6ft 6s 22 27 mph 1027.9mb 49f 46f
9:00pm 6ft 6s 22 27 mph 1027.8mb 49f 45f